createdAt,value
2019-05-09T00:00:26.967Z,11.00
2019-05-09T00:02:57.177Z,11.00
2019-05-09T00:05:27.336Z,11.00
2019-05-09T00:07:57.510Z,11.00
2019-05-09T00:10:38.395Z,10.90
2019-05-09T00:12:59.436Z,10.90
2019-05-09T00:15:29.575Z,10.90
2019-05-09T00:17:59.816Z,10.90
2019-05-09T00:20:33.164Z,11.00
2019-05-09T00:23:05.935Z,11.00
2019-05-09T00:25:36.101Z,11.00
2019-05-09T00:28:06.575Z,11.00
2019-05-09T00:30:55.370Z,11.00
2019-05-09T00:33:34.353Z,11.00
2019-05-09T00:36:04.355Z,11.00
2019-05-09T00:38:39.180Z,11.00
2019-05-09T00:41:09.588Z,11.00
2019-05-09T00:43:43.520Z,10.90
2019-05-09T00:46:14.710Z,10.80
2019-05-09T00:49:01.433Z,10.80
2019-05-09T00:51:33.681Z,10.90
2019-05-09T00:54:04.172Z,10.90
2019-05-09T00:56:35.528Z,10.90
2019-05-09T00:59:05.668Z,10.90
2019-05-09T01:01:35.671Z,10.90
2019-05-09T01:04:05.736Z,10.90
2019-05-09T01:06:35.901Z,11.00
2019-05-09T01:09:07.046Z,10.90
2019-05-09T01:11:37.196Z,10.80
2019-05-09T01:14:07.264Z,10.90
2019-05-09T01:16:37.352Z,11.00
2019-05-09T01:19:07.592Z,11.10
2019-05-09T01:21:37.681Z,11.20
2019-05-09T01:24:07.820Z,11.10
2019-05-09T01:26:37.972Z,11.10
2019-05-09T01:29:08.109Z,11.10
2019-05-09T01:31:38.336Z,11.10
2019-05-09T01:34:09.977Z,11.10
2019-05-09T01:36:59.905Z,11.10
2019-05-09T01:39:30.043Z,11.10
2019-05-09T01:42:00.127Z,11.00
2019-05-09T01:44:30.283Z,11.00
2019-05-09T01:47:00.415Z,10.90
2019-05-09T01:49:30.567Z,10.90
2019-05-09T01:52:03.014Z,10.90
2019-05-09T01:54:34.567Z,10.90
2019-05-09T01:57:04.946Z,10.80
2019-05-09T01:59:35.104Z,10.80
2019-05-09T02:02:08.470Z,10.80
2019-05-09T02:04:37.207Z,10.80
2019-05-09T02:07:07.432Z,10.80
2019-05-09T02:09:37.579Z,10.90
2019-05-09T02:12:07.806Z,10.80
2019-05-09T02:14:39.580Z,10.90
2019-05-09T02:17:27.236Z,10.80
2019-05-09T02:19:57.318Z,10.90
2019-05-09T02:22:34.518Z,10.80
2019-05-09T02:25:10.630Z,10.90
2019-05-09T02:27:40.790Z,10.90
2019-05-09T02:30:15.191Z,10.90
2019-05-09T02:32:45.193Z,11.00
2019-05-09T02:35:15.788Z,11.00
2019-05-09T02:37:49.561Z,11.00
2019-05-09T02:40:18.791Z,11.00
2019-05-09T02:42:49.290Z,11.10
2019-05-09T02:45:21.435Z,11.10
2019-05-09T02:47:51.646Z,11.10
2019-05-09T02:50:21.901Z,11.10
2019-05-09T02:52:52.116Z,11.00
2019-05-09T02:55:22.337Z,11.00
2019-05-09T02:57:54.128Z,11.00
2019-05-09T03:00:42.332Z,11.00
2019-05-09T03:03:20.057Z,11.00
2019-05-09T03:05:50.528Z,11.00
2019-05-09T03:08:20.676Z,11.10
2019-05-09T03:10:50.894Z,11.20
2019-05-09T03:13:21.041Z,11.10
2019-05-09T03:15:52.819Z,11.10
2019-05-09T03:18:22.980Z,11.10
2019-05-09T03:20:58.226Z,11.10
2019-05-09T03:23:28.668Z,11.10
2019-05-09T03:25:59.238Z,11.10
2019-05-09T03:28:31.034Z,11.00
2019-05-09T03:31:02.775Z,11.00
2019-05-09T03:33:35.807Z,10.90
2019-05-09T03:36:04.701Z,11.00
2019-05-09T03:38:34.912Z,11.00
2019-05-09T03:41:05.075Z,10.90
2019-05-09T03:43:37.705Z,10.90
2019-05-09T03:46:21.735Z,10.90
2019-05-09T03:48:53.447Z,10.90
2019-05-09T03:51:23.535Z,10.90
2019-05-09T03:53:53.743Z,10.90
2019-05-09T03:56:28.729Z,10.90
2019-05-09T03:58:58.867Z,11.00
2019-05-09T04:01:29.054Z,10.90
2019-05-09T04:03:59.127Z,11.00
2019-05-09T04:06:29.211Z,10.90
2019-05-09T04:08:59.447Z,10.90
2019-05-09T04:11:29.524Z,10.90
2019-05-09T04:14:04.060Z,10.80
2019-05-09T04:16:34.199Z,10.90
2019-05-09T04:19:04.281Z,10.90
2019-05-09T04:21:34.293Z,11.00
2019-05-09T04:24:04.567Z,11.00
2019-05-09T04:26:38.075Z,10.80
2019-05-09T04:29:08.310Z,10.80
2019-05-09T04:31:38.542Z,10.80
2019-05-09T04:34:09.966Z,10.80
2019-05-09T04:36:40.101Z,10.90
2019-05-09T04:39:18.016Z,11.10
2019-05-09T04:41:44.664Z,11.20
2019-05-09T04:44:20.965Z,11.10
2019-05-09T04:46:49.413Z,11.10
2019-05-09T04:49:19.585Z,11.10
2019-05-09T04:51:49.802Z,11.10
2019-05-09T04:54:20.041Z,11.10
2019-05-09T04:56:53.761Z,11.00
2019-05-09T04:59:23.016Z,11.20
2019-05-09T05:02:00.422Z,11.20
2019-05-09T05:04:30.437Z,11.30
2019-05-09T05:07:00.647Z,11.30
2019-05-09T05:09:30.799Z,11.30
2019-05-09T05:12:00.867Z,11.40
2019-05-09T05:14:31.099Z,11.40
2019-05-09T05:17:07.451Z,11.40
2019-05-09T05:19:35.557Z,11.50
2019-05-09T05:22:12.258Z,11.40
2019-05-09T05:24:44.052Z,11.50
2019-05-09T05:27:14.250Z,11.50
2019-05-09T05:29:44.367Z,11.40
2019-05-09T05:32:17.773Z,11.30
2019-05-09T05:35:07.547Z,11.40
2019-05-09T05:37:38.684Z,11.40
2019-05-09T05:40:09.324Z,11.40
2019-05-09T05:42:39.527Z,11.50
2019-05-09T05:45:09.848Z,11.60
2019-05-09T05:47:41.707Z,11.50
2019-05-09T05:50:12.350Z,11.50
2019-05-09T05:52:42.561Z,11.50
2019-05-09T05:55:12.705Z,11.50
2019-05-09T05:57:43.846Z,11.60
2019-05-09T06:00:18.080Z,11.70
2019-05-09T06:02:48.051Z,11.80
2019-05-09T06:05:18.800Z,12.00
2019-05-09T06:07:49.428Z,12.30
2019-05-09T06:10:19.538Z,12.20
2019-05-09T06:12:49.759Z,12.20
2019-05-09T06:15:19.820Z,12.30
2019-05-09T06:17:49.987Z,12.60
2019-05-09T06:20:20.069Z,12.90
2019-05-09T06:22:50.290Z,13.20
2019-05-09T06:25:21.237Z,13.20
2019-05-09T06:27:51.628Z,13.60
2019-05-09T06:30:29.574Z,13.50
2019-05-09T06:32:59.856Z,13.70
2019-05-09T06:35:31.063Z,13.80
2019-05-09T06:38:01.208Z,13.70
2019-05-09T06:40:31.347Z,13.70
2019-05-09T06:43:03.146Z,13.70
2019-05-09T06:45:39.122Z,13.70
2019-05-09T06:48:07.797Z,13.80
2019-05-09T06:50:38.008Z,13.60
2019-05-09T06:53:09.157Z,13.60
2019-05-09T06:55:39.247Z,13.70
2019-05-09T06:58:27.738Z,13.70
2019-05-09T07:01:03.622Z,13.70
2019-05-09T07:03:40.955Z,13.50
2019-05-09T07:06:20.785Z,13.60
2019-05-09T07:08:55.051Z,13.50
2019-05-09T07:11:27.400Z,13.50
2019-05-09T07:13:57.886Z,13.60
2019-05-09T07:16:28.219Z,13.30
2019-05-09T07:18:58.310Z,13.20
2019-05-09T07:21:30.151Z,13.30
2019-05-09T07:24:00.397Z,13.20
2019-05-09T07:26:32.145Z,13.10
2019-05-09T07:29:02.436Z,13.00
2019-05-09T07:31:37.925Z,12.90
2019-05-09T07:34:10.030Z,13.00
2019-05-09T07:36:40.178Z,13.20
2019-05-09T07:39:10.392Z,13.30
2019-05-09T07:41:40.527Z,13.20
2019-05-09T07:44:10.671Z,13.30
2019-05-09T07:46:48.284Z,13.30
2019-05-09T07:49:18.450Z,13.70
2019-05-09T07:51:48.575Z,14.30
2019-05-09T07:54:25.055Z,14.60
2019-05-09T07:56:50.570Z,14.90
2019-05-09T07:59:20.707Z,15.40
2019-05-09T08:01:50.854Z,16.00
2019-05-09T08:04:21.160Z,16.20
2019-05-09T08:06:51.300Z,16.60
2019-05-09T08:09:21.527Z,17.00
2019-05-09T08:11:51.653Z,17.10
2019-05-09T08:14:21.802Z,16.20
2019-05-09T08:16:52.018Z,15.40
2019-05-09T08:19:22.156Z,15.10
2019-05-09T08:21:52.308Z,15.30
2019-05-09T08:24:22.606Z,15.50
2019-05-09T08:26:52.726Z,15.10
2019-05-09T08:29:22.812Z,15.20
2019-05-09T08:31:52.955Z,15.50
2019-05-09T08:34:23.178Z,15.50
2019-05-09T08:36:53.384Z,15.20
2019-05-09T08:39:23.537Z,15.30
2019-05-09T08:41:53.687Z,15.90
2019-05-09T08:44:23.854Z,16.00
2019-05-09T08:46:54.009Z,16.20
2019-05-09T08:49:25.800Z,17.00
2019-05-09T08:52:10.076Z,16.60
2019-05-09T08:54:45.800Z,16.20
2019-05-09T08:57:25.360Z,16.00
2019-05-09T08:59:55.505Z,16.00
2019-05-09T09:02:28.173Z,15.40
2019-05-09T09:04:58.198Z,15.10
2019-05-09T09:07:29.667Z,15.50
2019-05-09T09:10:00.191Z,16.10
2019-05-09T09:12:34.361Z,16.50
2019-05-09T09:15:02.282Z,16.70
2019-05-09T09:17:32.461Z,17.90
2019-05-09T09:20:02.612Z,18.50
2019-05-09T09:22:32.763Z,18.50
2019-05-09T09:25:02.984Z,18.90
2019-05-09T09:27:33.626Z,18.00
2019-05-09T09:30:17.636Z,18.10
2019-05-09T09:32:38.985Z,18.20
2019-05-09T09:35:09.213Z,18.00
2019-05-09T09:37:48.572Z,18.00
2019-05-09T09:40:11.432Z,17.70
2019-05-09T09:42:41.650Z,17.60
2019-05-09T09:45:11.795Z,17.50
2019-05-09T09:47:42.044Z,17.60
2019-05-09T09:50:12.589Z,18.10
2019-05-09T09:52:42.820Z,17.80
2019-05-09T09:55:14.332Z,18.20
2019-05-09T09:57:44.476Z,18.50
2019-05-09T10:00:24.997Z,18.50
2019-05-09T10:02:55.286Z,19.10
2019-05-09T10:05:27.677Z,19.20
2019-05-09T10:07:58.191Z,18.80
2019-05-09T10:10:36.464Z,19.20
2019-05-09T10:13:10.456Z,19.00
2019-05-09T10:15:43.009Z,18.70
2019-05-09T10:18:27.620Z,18.90
2019-05-09T10:20:59.413Z,19.60
2019-05-09T10:23:29.555Z,19.50
2019-05-09T10:25:59.648Z,20.20
2019-05-09T10:28:30.205Z,20.30
2019-05-09T10:31:00.365Z,19.70
2019-05-09T10:33:30.508Z,19.20
2019-05-09T10:36:04.461Z,18.80
2019-05-09T10:38:32.297Z,18.90
2019-05-09T10:41:02.565Z,18.70
2019-05-09T10:43:39.051Z,18.90
2019-05-09T10:46:22.017Z,19.10
2019-05-09T10:49:08.741Z,19.40
2019-05-09T10:51:38.819Z,19.90
2019-05-09T10:54:08.901Z,19.10
2019-05-09T10:56:39.009Z,18.60
2019-05-09T10:59:09.134Z,18.40
2019-05-09T11:01:39.347Z,18.00
2019-05-09T11:04:09.439Z,18.20
2019-05-09T11:06:39.572Z,18.40
2019-05-09T11:09:10.100Z,18.10
2019-05-09T11:11:40.187Z,17.80
2019-05-09T11:14:10.367Z,17.80
2019-05-09T11:16:46.189Z,17.90
2019-05-09T11:19:12.320Z,17.70
2019-05-09T11:21:42.493Z,17.80
2019-05-09T11:24:12.667Z,17.70
2019-05-09T11:26:42.833Z,17.70
2019-05-09T11:29:13.011Z,17.60
2019-05-09T11:31:43.032Z,17.60
2019-05-09T11:34:13.238Z,17.90
2019-05-09T11:36:43.385Z,17.80
2019-05-09T11:39:13.379Z,18.20
2019-05-09T11:41:43.467Z,18.70
2019-05-09T11:44:13.471Z,18.60
2019-05-09T11:46:43.687Z,18.20
2019-05-09T11:49:13.895Z,18.60
2019-05-09T11:51:43.998Z,18.40
2019-05-09T11:54:16.565Z,18.90
2019-05-09T11:56:48.007Z,18.90
2019-05-09T11:59:18.955Z,19.10
2019-05-09T12:01:50.212Z,19.30
2019-05-09T12:04:20.499Z,19.30
2019-05-09T12:06:50.792Z,19.50
2019-05-09T12:09:20.943Z,19.80
2019-05-09T12:11:51.115Z,19.70
2019-05-09T12:14:21.261Z,19.70
2019-05-09T12:16:51.477Z,20.10
2019-05-09T12:19:21.620Z,19.50
2019-05-09T12:21:51.851Z,19.60
2019-05-09T12:24:21.923Z,19.80
2019-05-09T12:26:52.083Z,19.60
2019-05-09T12:29:22.379Z,19.20
2019-05-09T12:31:52.453Z,19.40
2019-05-09T12:34:22.618Z,20.10
2019-05-09T12:36:52.756Z,20.30
2019-05-09T12:39:22.772Z,20.70
2019-05-09T12:41:52.862Z,19.80
2019-05-09T12:44:24.955Z,20.40
2019-05-09T12:46:54.877Z,20.00
2019-05-09T12:49:24.916Z,19.30
2019-05-09T12:51:55.068Z,19.00
2019-05-09T12:54:27.800Z,18.90
2019-05-09T12:56:59.168Z,18.90
2019-05-09T12:59:28.844Z,19.20
2019-05-09T13:01:58.930Z,19.30
2019-05-09T13:04:29.064Z,19.40
2019-05-09T13:06:59.218Z,19.50
2019-05-09T13:09:29.311Z,19.20
2019-05-09T13:11:59.441Z,19.30
2019-05-09T13:14:29.592Z,19.30
2019-05-09T13:17:17.957Z,19.50
2019-05-09T13:19:49.701Z,19.60
2019-05-09T13:22:19.849Z,19.30
2019-05-09T13:24:50.068Z,19.20
2019-05-09T13:27:20.149Z,19.20
2019-05-09T13:29:50.253Z,19.10
2019-05-09T13:32:20.530Z,19.10
2019-05-09T13:34:50.788Z,18.90
2019-05-09T13:37:20.948Z,19.20
2019-05-09T13:39:51.238Z,19.70
2019-05-09T13:42:21.348Z,20.00
2019-05-09T13:44:51.474Z,20.00
2019-05-09T13:47:21.554Z,19.80
2019-05-09T13:49:51.736Z,19.50
2019-05-09T13:52:21.902Z,19.50
2019-05-09T13:54:53.177Z,19.50
2019-05-09T13:57:23.324Z,19.20
2019-05-09T13:59:53.538Z,19.30
2019-05-09T14:02:23.751Z,19.30
2019-05-09T14:04:53.837Z,19.50
2019-05-09T14:07:23.925Z,19.50
2019-05-09T14:09:54.177Z,19.70
2019-05-09T14:12:24.348Z,20.00
2019-05-09T14:14:54.490Z,20.00
2019-05-09T14:17:41.815Z,20.00
2019-05-09T14:19:56.581Z,20.00
2019-05-09T14:22:26.773Z,20.30
2019-05-09T14:24:58.513Z,20.10
2019-05-09T14:27:29.305Z,19.70
2019-05-09T14:29:59.790Z,19.70
2019-05-09T14:32:34.612Z,19.80
2019-05-09T14:35:02.186Z,20.00
2019-05-09T14:37:33.435Z,19.90
2019-05-09T14:40:05.416Z,20.30
2019-05-09T14:42:35.798Z,20.50
2019-05-09T14:45:08.457Z,20.40
2019-05-09T14:47:42.188Z,20.60
2019-05-09T14:50:10.919Z,20.60
2019-05-09T14:52:41.088Z,20.30
2019-05-09T14:55:11.520Z,20.40
2019-05-09T14:57:41.723Z,20.00
2019-05-09T15:00:12.065Z,20.10
2019-05-09T15:02:42.051Z,20.20
2019-05-09T15:05:12.361Z,20.20
2019-05-09T15:07:42.432Z,20.10
2019-05-09T15:10:12.748Z,20.50
2019-05-09T15:12:42.888Z,20.50
2019-05-09T15:15:13.385Z,20.20
2019-05-09T15:17:43.601Z,20.00
2019-05-09T15:20:14.035Z,20.00
2019-05-09T15:22:44.237Z,20.20
2019-05-09T15:25:18.294Z,20.60
2019-05-09T15:27:47.792Z,20.30
2019-05-09T15:30:18.730Z,20.30
2019-05-09T15:32:51.842Z,20.70
2019-05-09T15:35:20.824Z,21.00
2019-05-09T15:37:50.904Z,21.10
2019-05-09T15:40:21.129Z,21.10
2019-05-09T15:42:51.211Z,21.10
2019-05-09T15:45:21.447Z,21.10
2019-05-09T15:47:51.584Z,21.00
2019-05-09T15:50:23.303Z,20.90
2019-05-09T15:52:53.360Z,21.10
2019-05-09T15:55:23.363Z,21.50
2019-05-09T15:57:53.591Z,22.80
2019-05-09T16:00:23.909Z,24.50
2019-05-09T16:02:54.093Z,24.40
2019-05-09T16:05:24.308Z,25.20
2019-05-09T16:07:54.455Z,24.90
2019-05-09T16:10:24.671Z,26.50
2019-05-09T16:12:55.169Z,26.40
2019-05-09T16:15:28.738Z,26.60
2019-05-09T16:18:00.568Z,27.20
2019-05-09T16:20:37.706Z,27.00
2019-05-09T16:23:02.434Z,26.30
2019-05-09T16:25:32.564Z,27.10
2019-05-09T16:28:02.650Z,27.60
2019-05-09T16:30:32.862Z,27.30
2019-05-09T16:33:03.021Z,26.70
2019-05-09T16:35:33.152Z,25.70
2019-05-09T16:38:07.872Z,25.90
2019-05-09T16:40:38.377Z,25.20
2019-05-09T16:43:09.285Z,25.00
2019-05-09T16:45:40.438Z,25.40
2019-05-09T16:48:11.560Z,26.50
2019-05-09T16:50:55.979Z,26.70
2019-05-09T16:53:13.676Z,26.90
2019-05-09T16:55:43.904Z,26.90
2019-05-09T16:58:14.052Z,26.30
2019-05-09T17:00:49.224Z,26.50
2019-05-09T17:03:19.549Z,27.60
2019-05-09T17:05:49.777Z,28.00
2019-05-09T17:08:19.993Z,27.20
2019-05-09T17:10:51.268Z,26.70
2019-05-09T17:13:21.496Z,25.30
2019-05-09T17:15:51.735Z,26.00
2019-05-09T17:18:21.888Z,26.80
2019-05-09T17:20:53.542Z,26.50
2019-05-09T17:23:29.590Z,26.40
2019-05-09T17:26:00.014Z,26.80
2019-05-09T17:28:30.311Z,26.50
2019-05-09T17:31:00.619Z,26.30
2019-05-09T17:33:30.794Z,26.00
2019-05-09T17:36:00.855Z,24.30
2019-05-09T17:38:31.087Z,23.90
2019-05-09T17:41:01.723Z,22.30
2019-05-09T17:43:32.008Z,21.30
2019-05-09T17:46:02.169Z,20.60
2019-05-09T17:48:32.320Z,19.70
2019-05-09T17:51:02.631Z,19.30
2019-05-09T17:53:33.800Z,18.80
2019-05-09T17:56:04.612Z,18.80
2019-05-09T17:58:34.752Z,18.70
2019-05-09T18:01:07.592Z,18.50
2019-05-09T18:03:38.411Z,18.30
2019-05-09T18:06:08.923Z,18.10
2019-05-09T18:08:39.078Z,17.70
2019-05-09T18:11:12.587Z,17.50
2019-05-09T18:13:41.105Z,17.30
2019-05-09T18:16:11.328Z,17.00
2019-05-09T18:18:41.491Z,16.80
2019-05-09T18:21:11.679Z,16.60
2019-05-09T18:23:41.847Z,16.40
2019-05-09T18:26:12.073Z,16.10
2019-05-09T18:28:42.317Z,15.90
2019-05-09T18:31:12.532Z,15.70
2019-05-09T18:33:44.356Z,15.50
2019-05-09T18:36:14.496Z,15.30
2019-05-09T18:38:44.656Z,15.10
2019-05-09T18:41:20.993Z,14.90
2019-05-09T18:43:51.032Z,14.80
2019-05-09T18:46:21.667Z,14.70
2019-05-09T18:48:53.005Z,14.60
2019-05-09T18:51:23.153Z,14.60
2019-05-09T18:53:53.327Z,14.50
2019-05-09T18:56:23.408Z,14.40
2019-05-09T18:58:53.644Z,14.20
2019-05-09T19:01:23.877Z,14.10
2019-05-09T19:03:54.123Z,14.00
2019-05-09T19:06:24.441Z,13.90
2019-05-09T19:08:54.531Z,13.90
2019-05-09T19:11:24.680Z,13.90
2019-05-09T19:13:55.862Z,13.80
2019-05-09T19:16:27.665Z,13.80
2019-05-09T19:19:17.657Z,13.70
2019-05-09T19:21:52.215Z,13.60
2019-05-09T19:24:22.557Z,13.50
2019-05-09T19:26:52.717Z,13.40
2019-05-09T19:29:23.080Z,13.30
2019-05-09T19:31:58.486Z,13.30
2019-05-09T19:34:28.711Z,13.40
2019-05-09T19:36:58.947Z,13.30
2019-05-09T19:39:29.134Z,13.40
2019-05-09T19:41:59.223Z,13.50
2019-05-09T19:44:29.449Z,13.40
2019-05-09T19:47:01.649Z,13.30
2019-05-09T19:49:31.469Z,13.30
2019-05-09T19:52:01.625Z,13.20
2019-05-09T19:54:31.708Z,13.10
2019-05-09T19:57:01.957Z,13.00
2019-05-09T19:59:32.046Z,13.10
2019-05-09T20:02:02.317Z,13.10
2019-05-09T20:04:32.528Z,13.30
2019-05-09T20:07:03.993Z,13.40
2019-05-09T20:09:38.454Z,13.40
2019-05-09T20:12:16.221Z,13.40
2019-05-09T20:14:48.076Z,13.20
2019-05-09T20:17:18.296Z,13.20
2019-05-09T20:19:48.479Z,13.20
2019-05-09T20:22:19.761Z,13.20
2019-05-09T20:24:49.920Z,13.30
2019-05-09T20:27:21.108Z,13.30
2019-05-09T20:29:51.271Z,13.20
2019-05-09T20:32:21.430Z,13.20
2019-05-09T20:34:51.693Z,13.20
2019-05-09T20:37:23.133Z,13.10
2019-05-09T20:39:53.460Z,12.90
2019-05-09T20:42:23.869Z,12.90
2019-05-09T20:44:54.152Z,12.80
2019-05-09T20:47:24.494Z,12.80
2019-05-09T20:49:54.787Z,12.70
2019-05-09T20:52:25.123Z,12.70
2019-05-09T20:54:56.488Z,12.70
2019-05-09T20:57:26.745Z,12.80
2019-05-09T20:59:57.115Z,12.80
2019-05-09T21:02:27.451Z,12.70
2019-05-09T21:04:57.739Z,12.80
2019-05-09T21:07:28.266Z,12.90
2019-05-09T21:09:58.742Z,12.90
2019-05-09T21:12:29.013Z,12.80
2019-05-09T21:14:59.420Z,12.80
2019-05-09T21:17:29.844Z,12.70
2019-05-09T21:20:00.206Z,12.70
2019-05-09T21:22:30.520Z,12.70
2019-05-09T21:25:01.011Z,12.70
2019-05-09T21:27:31.374Z,12.70
2019-05-09T21:30:01.764Z,12.70
2019-05-09T21:32:32.353Z,12.60
2019-05-09T21:35:02.665Z,12.50
2019-05-09T21:37:32.836Z,12.50
2019-05-09T21:40:03.387Z,12.60
2019-05-09T21:42:33.645Z,12.50
2019-05-09T21:45:04.507Z,12.50
2019-05-09T21:47:34.815Z,12.40
2019-05-09T21:50:08.242Z,12.30
2019-05-09T21:52:38.333Z,12.20
2019-05-09T21:55:08.744Z,12.20
2019-05-09T21:57:38.904Z,12.10
2019-05-09T22:00:12.128Z,12.10
2019-05-09T22:02:44.267Z,12.10
2019-05-09T22:05:14.516Z,12.20
2019-05-09T22:07:44.741Z,12.20
2019-05-09T22:10:14.909Z,12.30
2019-05-09T22:12:45.135Z,12.20
2019-05-09T22:15:15.352Z,12.20
2019-05-09T22:17:45.510Z,12.10
2019-05-09T22:20:16.034Z,12.10
2019-05-09T22:22:46.301Z,12.10
2019-05-09T22:25:17.251Z,12.20
2019-05-09T22:27:47.340Z,12.00
2019-05-09T22:30:19.973Z,12.00
2019-05-09T22:32:50.132Z,12.00
2019-05-09T22:35:20.300Z,11.90
2019-05-09T22:37:50.515Z,11.90
2019-05-09T22:40:21.322Z,11.70
2019-05-09T22:42:51.546Z,11.80
2019-05-09T22:45:21.868Z,11.70
2019-05-09T22:47:51.961Z,11.70
2019-05-09T22:50:22.043Z,11.80
2019-05-09T22:52:52.136Z,11.70
2019-05-09T22:55:22.306Z,11.80
2019-05-09T22:57:52.598Z,11.90
2019-05-09T23:00:22.759Z,11.80
2019-05-09T23:02:52.913Z,11.80
2019-05-09T23:05:23.146Z,11.80
2019-05-09T23:07:53.228Z,11.90
2019-05-09T23:10:23.403Z,11.90
2019-05-09T23:12:53.549Z,11.90
2019-05-09T23:15:23.786Z,11.80
2019-05-09T23:17:54.011Z,11.80
2019-05-09T23:20:40.674Z,11.80
2019-05-09T23:23:28.814Z,11.70
2019-05-09T23:25:59.311Z,11.70
2019-05-09T23:28:29.545Z,11.60
2019-05-09T23:31:01.251Z,11.70
2019-05-09T23:33:33.044Z,11.70
2019-05-09T23:36:03.275Z,11.70
2019-05-09T23:38:33.368Z,11.70
2019-05-09T23:41:03.596Z,11.80
2019-05-09T23:43:33.696Z,11.90
2019-05-09T23:46:03.851Z,11.90
2019-05-09T23:48:34.004Z,11.90
2019-05-09T23:51:04.158Z,11.90
2019-05-09T23:53:36.324Z,11.90
2019-05-09T23:56:24.532Z,11.90
2019-05-09T23:59:12.328Z,11.90
